createdAt,value
2022-10-01T00:02:18.676Z,100002.35
2022-10-01T00:04:53.857Z,100004.95
2022-10-01T00:07:31.707Z,100002.58
2022-10-01T00:10:04.731Z,99998.92
2022-10-01T00:12:36.101Z,99999.15
2022-10-01T00:15:13.306Z,99995.84
2022-10-01T00:17:44.646Z,99990.34
2022-10-01T00:20:14.857Z,99989.42
2022-10-01T00:22:47.181Z,99985.77
2022-10-01T00:25:18.820Z,99981.75
2022-10-01T00:27:49.484Z,99980.29
2022-10-01T00:30:20.067Z,99986.79
2022-10-01T00:32:51.142Z,99981.59
2022-10-01T00:35:31.988Z,99979.91
2022-10-01T00:38:03.411Z,99984.15
2022-10-01T00:40:34.578Z,99982.71
2022-10-01T00:43:23.907Z,99976.35
2022-10-01T00:45:58.904Z,99975.92
2022-10-01T00:48:31.850Z,99978.91
2022-10-01T00:51:01.932Z,99978.11
2022-10-01T00:53:31.717Z,99975.22
2022-10-01T00:56:01.818Z,99979.80
2022-10-01T00:58:30.790Z,99984.69
2022-10-01T01:01:03.927Z,99984.25
2022-10-01T01:03:34.801Z,99981.06
2022-10-01T01:06:03.654Z,99978.41
2022-10-01T01:08:33.793Z,99978.14
2022-10-01T01:11:25.045Z,99979.58
2022-10-01T01:14:06.912Z,99982.73
2022-10-01T01:16:58.181Z,99983.77
2022-10-01T01:20:14.257Z,99984.19
2022-10-01T01:22:51.931Z,99983.94
2022-10-01T01:25:31.400Z,99980.84
2022-10-01T01:28:25.603Z,99971.77
2022-10-01T01:31:16.746Z,99967.83
2022-10-01T01:33:50.032Z,99960.98
2022-10-01T01:36:26.779Z,99959.94
2022-10-01T01:39:05.315Z,99963.52
2022-10-01T01:41:38.580Z,99965.56
2022-10-01T01:44:10.929Z,99973.05
2022-10-01T01:46:44.892Z,99975.37
2022-10-01T01:49:19.637Z,99976.36
2022-10-01T01:52:13.207Z,99976.10
2022-10-01T01:54:47.645Z,99976.86
2022-10-01T01:57:21.982Z,99972.70
2022-10-01T01:59:53.148Z,99975.42
2022-10-01T02:02:28.093Z,99972.14
2022-10-01T02:05:19.567Z,99974.64
2022-10-01T02:08:40.861Z,99974.13
2022-10-01T02:11:25.778Z,99970.54
2022-10-01T02:14:33.414Z,99977.80
2022-10-01T02:17:40.423Z,99973.77
2022-10-01T02:20:49.765Z,99975.80
2022-10-01T02:23:59.703Z,99977.91
2022-10-01T02:26:34.819Z,99982.81
2022-10-01T02:29:21.389Z,99985.69
2022-10-01T02:32:13.007Z,99986.98
2022-10-01T02:34:45.759Z,99986.61
2022-10-01T02:37:18.068Z,99982.87
2022-10-01T02:39:49.117Z,99984.16
2022-10-01T02:42:20.818Z,99985.23
2022-10-01T02:44:53.635Z,99985.96
2022-10-01T02:47:35.138Z,99982.25
2022-10-01T02:50:09.250Z,99982.17
2022-10-01T02:52:38.108Z,99978.59
2022-10-01T02:55:24.237Z,99980.23
2022-10-01T02:57:55.822Z,99982.24
2022-10-01T03:00:28.377Z,99982.89
2022-10-01T03:03:01.453Z,99983.74
2022-10-01T03:05:33.688Z,99982.95
2022-10-01T03:08:15.468Z,99983.95
2022-10-01T03:10:49.377Z,99982.77
2022-10-01T03:13:19.883Z,99978.70
2022-10-01T03:15:52.798Z,99971.87
2022-10-01T03:22:33.155Z,99964.75
2022-10-01T03:25:06.297Z,99962.04
2022-10-01T03:27:35.662Z,99961.22
2022-10-01T03:30:08.285Z,99957.83
2022-10-01T03:32:37.500Z,99951.02
2022-10-01T03:35:10.541Z,99950.98
2022-10-01T03:37:43.140Z,99947.90
2022-10-01T03:40:15.700Z,99942.14
2022-10-01T03:43:04.093Z,99944.28
2022-10-01T03:45:35.754Z,99940.35
2022-10-01T03:48:10.249Z,99935.66
2022-10-01T03:50:40.983Z,99931.87
2022-10-01T03:53:12.947Z,99929.58
2022-10-01T03:56:07.349Z,99926.48
2022-10-01T03:58:39.764Z,99923.66
2022-10-01T04:01:10.467Z,99918.70
2022-10-01T04:03:44.127Z,99920.79
2022-10-01T04:06:18.335Z,99916.06
2022-10-01T04:08:48.504Z,99910.35
2022-10-01T04:11:19.234Z,99906.93
2022-10-01T04:13:49.806Z,99901.30
2022-10-01T04:16:21.225Z,99900.31
2022-10-01T04:18:51.475Z,99895.98
2022-10-01T04:21:22.148Z,99894.13
2022-10-01T04:23:52.434Z,99893.30
2022-10-01T04:26:23.833Z,99895.48
2022-10-01T04:28:54.615Z,99894.11
2022-10-01T04:31:25.801Z,99887.34
2022-10-01T04:33:55.687Z,99889.20
2022-10-01T04:36:26.684Z,99886.84
2022-10-01T04:39:01.641Z,99886.69
2022-10-01T04:41:32.081Z,99889.16
2022-10-01T04:44:01.829Z,99889.48
2022-10-01T04:46:32.415Z,99887.05
2022-10-01T04:49:06.596Z,99883.50
2022-10-01T04:51:34.594Z,99885.95
2022-10-01T04:54:04.036Z,99893.67
2022-10-01T04:56:33.519Z,99897.33
2022-10-01T04:59:03.463Z,99903.43
2022-10-01T05:01:32.965Z,99911.72
2022-10-01T05:04:01.194Z,99911.17
2022-10-01T05:06:32.190Z,99912.80
2022-10-01T05:09:02.495Z,99911.62
2022-10-01T05:11:34.444Z,99913.54
2022-10-01T05:14:04.018Z,99916.90
2022-10-01T05:16:33.274Z,99920.24
2022-10-01T05:19:29.436Z,99923.86
2022-10-01T05:21:58.156Z,99926.58
2022-10-01T05:24:28.809Z,99921.23
2022-10-01T05:26:57.678Z,99917.09
2022-10-01T05:29:27.931Z,99913.45
2022-10-01T05:31:58.032Z,99915.14
2022-10-01T05:34:27.595Z,99915.34
2022-10-01T05:36:57.242Z,99911.25
2022-10-01T05:39:27.354Z,99910.98
2022-10-01T05:41:55.303Z,99911.09
2022-10-01T05:44:24.134Z,99911.70
2022-10-01T05:46:53.819Z,99908.98
2022-10-01T05:49:26.534Z,99909.73
2022-10-01T05:51:55.113Z,99902.98
2022-10-01T05:54:27.044Z,99902.69
2022-10-01T05:56:58.067Z,99902.58
2022-10-01T05:59:31.695Z,99907.27
2022-10-01T06:02:04.444Z,99911.43
2022-10-01T06:04:34.811Z,99913.80
2022-10-01T06:07:07.383Z,99915.30
2022-10-01T06:09:38.476Z,99919.52
2022-10-01T06:12:09.815Z,99917.64
2022-10-01T06:14:40.013Z,99918.79
2022-10-01T06:17:10.933Z,99917.70
2022-10-01T06:19:42.088Z,99912.33
2022-10-01T06:22:12.215Z,99909.23
2022-10-01T06:24:41.201Z,99903.30
2022-10-01T06:27:10.131Z,99894.94
2022-10-01T06:29:39.735Z,99896.39
2022-10-01T06:32:13.248Z,99885.44
2022-10-01T06:34:41.744Z,99881.77
2022-10-01T06:37:11.659Z,99881.36
2022-10-01T06:39:41.035Z,99879.38
2022-10-01T06:42:10.563Z,99880.31
2022-10-01T06:44:38.282Z,99884.08
2022-10-01T06:47:08.849Z,99881.85
2022-10-01T06:49:38.340Z,99875.98
2022-10-01T06:52:26.350Z,99878.05
2022-10-01T06:54:55.232Z,99880.23
2022-10-01T06:57:23.408Z,99881.71
2022-10-01T06:59:51.885Z,99881.82
2022-10-01T07:02:29.309Z,99880.26
2022-10-01T07:05:01.523Z,99881.40
2022-10-01T07:07:36.043Z,99882.14
2022-10-01T07:10:06.818Z,99879.02
2022-10-01T07:12:36.515Z,99873.19
2022-10-01T07:15:07.422Z,99872.36
2022-10-01T07:17:45.095Z,99873.77
2022-10-01T07:20:21.217Z,99866.42
2022-10-01T07:22:56.162Z,99863.90
2022-10-01T07:25:26.091Z,99862.29
2022-10-01T07:27:59.924Z,99850.01
2022-10-01T07:30:29.192Z,99846.86
2022-10-01T07:32:58.364Z,99847.24
2022-10-01T07:35:25.997Z,99846.76
2022-10-01T07:37:56.989Z,99846.70
2022-10-01T07:40:27.471Z,99842.76
2022-10-01T07:42:58.741Z,99836.59
2022-10-01T07:45:27.722Z,99833.83
2022-10-01T07:47:59.915Z,99836.83
2022-10-01T07:50:31.016Z,99833.95
2022-10-01T07:53:00.151Z,99835.66
2022-10-01T07:55:32.508Z,99839.38
2022-10-01T07:58:04.388Z,99835.64
2022-10-01T08:00:34.656Z,99830.86
2022-10-01T08:03:05.965Z,99828.39
2022-10-01T08:05:36.299Z,99823.31
2022-10-01T08:08:07.840Z,99819.11
2022-10-01T08:10:39.701Z,99809.00
2022-10-01T08:13:17.277Z,99810.30
2022-10-01T08:15:47.724Z,99803.23
2022-10-01T08:18:16.143Z,99800.65
2022-10-01T08:20:45.149Z,99798.46
2022-10-01T08:23:14.554Z,99798.48
2022-10-01T08:25:45.990Z,99798.27
2022-10-01T08:28:14.383Z,99802.63
2022-10-01T08:30:43.631Z,99793.65
2022-10-01T08:33:13.893Z,99792.92
2022-10-01T08:35:43.296Z,99791.23
2022-10-01T08:38:13.551Z,99790.52
2022-10-01T08:40:46.215Z,99780.94
2022-10-01T08:43:24.234Z,99784.47
2022-10-01T08:46:00.183Z,99779.77
2022-10-01T08:48:38.390Z,99776.74
2022-10-01T08:51:19.313Z,99774.17
2022-10-01T08:53:55.163Z,99768.63
2022-10-01T08:56:34.965Z,99766.70
2022-10-01T08:59:27.218Z,99768.43
2022-10-01T09:01:58.807Z,99762.70
2022-10-01T09:04:28.021Z,99761.95
2022-10-01T09:07:10.892Z,99758.23
2022-10-01T09:10:17.052Z,99760.17
2022-10-01T09:12:56.102Z,99752.84
2022-10-01T09:15:32.962Z,99744.20
2022-10-01T09:18:23.577Z,99747.00
2022-10-01T09:21:02.633Z,99742.40
2022-10-01T09:23:46.771Z,99736.91
2022-10-01T09:26:15.579Z,99736.56
2022-10-01T09:28:47.512Z,99733.76
2022-10-01T09:31:39.699Z,99726.34
2022-10-01T09:34:15.206Z,99718.18
2022-10-01T09:37:04.134Z,99716.52
2022-10-01T09:39:49.003Z,99713.80
2022-10-01T09:42:18.044Z,99715.96
2022-10-01T09:44:47.514Z,99708.57
2022-10-01T09:47:22.461Z,99716.59
2022-10-01T09:49:51.783Z,99708.23
2022-10-01T09:52:33.246Z,99705.33
2022-10-01T09:55:20.660Z,99696.39
2022-10-01T09:58:12.148Z,99683.89
2022-10-01T10:00:41.331Z,99680.85
2022-10-01T10:03:09.418Z,99682.42
2022-10-01T10:05:43.867Z,99676.23
2022-10-01T10:08:28.201Z,99668.76
2022-10-01T10:11:03.141Z,99661.34
2022-10-01T10:13:40.227Z,99662.34
2022-10-01T10:16:37.635Z,99656.94
2022-10-01T10:19:28.447Z,99650.06
2022-10-01T10:22:09.836Z,99651.11
2022-10-01T10:24:38.489Z,99651.50
2022-10-01T10:27:30.226Z,99654.09
2022-10-01T10:30:15.405Z,99648.04
2022-10-01T10:32:46.967Z,99643.48
2022-10-01T10:35:21.509Z,99637.62
2022-10-01T10:37:53.351Z,99646.59
2022-10-01T10:40:36.124Z,99642.13
2022-10-01T10:43:05.834Z,99639.02
2022-10-01T10:45:38.472Z,99630.73
2022-10-01T10:48:15.011Z,99631.25
2022-10-01T10:50:45.059Z,99627.64
2022-10-01T10:53:21.801Z,99617.91
2022-10-01T10:55:55.805Z,99618.67
2022-10-01T10:58:45.030Z,99615.06
2022-10-01T11:01:17.741Z,99613.39
2022-10-01T11:03:56.697Z,99612.33
2022-10-01T11:06:24.920Z,99606.52
2022-10-01T11:09:11.641Z,99598.16
2022-10-01T11:11:49.488Z,99596.96
2022-10-01T11:14:51.728Z,99597.01
2022-10-01T11:17:49.050Z,99587.68
2022-10-01T11:20:23.442Z,99585.36
2022-10-01T11:23:13.717Z,99584.19
2022-10-01T11:26:03.629Z,99586.98
2022-10-01T11:28:59.939Z,99586.96
2022-10-01T11:32:23.269Z,99580.99
2022-10-01T11:35:35.142Z,99575.33
2022-10-01T11:38:32.255Z,99577.10
2022-10-01T11:41:35.339Z,99574.59
2022-10-01T11:44:06.159Z,99564.37
2022-10-01T11:47:23.027Z,99565.13
2022-10-01T11:50:01.433Z,99563.54
2022-10-01T11:52:56.080Z,99555.58
2022-10-01T11:55:58.195Z,99554.03
2022-10-01T11:58:52.355Z,99550.41
2022-10-01T12:02:06.824Z,99547.45
2022-10-01T12:04:45.710Z,99539.66
2022-10-01T12:07:26.546Z,99529.05
2022-10-01T12:10:20.237Z,99531.97
2022-10-01T12:13:04.069Z,99527.72
2022-10-01T12:15:50.213Z,99522.89
2022-10-01T12:18:50.231Z,99522.88
2022-10-01T12:21:26.834Z,99523.66
2022-10-01T12:24:10.757Z,99526.70
2022-10-01T12:26:49.420Z,99523.46
2022-10-01T12:29:24.999Z,99521.80
2022-10-01T12:32:19.421Z,99522.81
2022-10-01T12:35:18.899Z,99514.67
2022-10-01T12:38:09.720Z,99511.73
2022-10-01T12:40:45.363Z,99503.95
2022-10-01T12:43:43.754Z,99505.38
2022-10-01T12:46:34.190Z,99505.21
2022-10-01T12:49:24.394Z,99500.47
2022-10-01T12:52:33.378Z,99496.41
2022-10-01T12:55:17.608Z,99495.11
2022-10-01T12:58:22.964Z,99501.23
2022-10-01T13:01:18.914Z,99492.91
2022-10-01T13:04:03.176Z,99488.66
2022-10-01T13:06:40.398Z,99480.21
2022-10-01T13:09:38.460Z,99480.14
2022-10-01T13:12:17.124Z,99477.91
2022-10-01T13:14:46.207Z,99481.11
2022-10-01T13:17:23.782Z,99480.86
2022-10-01T13:20:03.560Z,99479.38
2022-10-01T13:22:49.204Z,99473.25
2022-10-01T13:25:30.753Z,99465.70
2022-10-01T13:28:11.611Z,99461.13
2022-10-01T13:30:58.837Z,99454.85
2022-10-01T13:33:32.024Z,99457.57
2022-10-01T13:36:02.554Z,99452.81
2022-10-01T13:38:42.433Z,99448.66
2022-10-01T13:41:20.853Z,99441.22
2022-10-01T13:43:58.009Z,99440.16
2022-10-01T13:46:30.855Z,99443.28
2022-10-01T13:49:27.252Z,99438.01
2022-10-01T13:51:55.732Z,99439.31
2022-10-01T13:54:47.241Z,99437.78
2022-10-01T13:57:36.894Z,99435.80
2022-10-01T14:00:47.862Z,99430.81
2022-10-01T14:03:37.611Z,99425.48
2022-10-01T14:06:13.912Z,99425.26
2022-10-01T14:09:09.079Z,99421.58
2022-10-01T14:11:56.988Z,99414.86
2022-10-01T14:15:05.868Z,99413.53
2022-10-01T14:17:35.946Z,99406.30
2022-10-01T14:20:13.253Z,99405.46
2022-10-01T14:23:14.187Z,99404.83
2022-10-01T14:25:53.536Z,99406.27
2022-10-01T14:28:41.649Z,99399.30
2022-10-01T14:31:28.698Z,99393.77
2022-10-01T14:34:33.637Z,99391.14
2022-10-01T14:37:04.598Z,99387.55
2022-10-01T14:39:32.968Z,99386.80
2022-10-01T14:42:16.522Z,99381.61
2022-10-01T14:44:46.878Z,99378.48
2022-10-01T14:47:21.644Z,99375.16
2022-10-01T14:49:50.184Z,99371.88
2022-10-01T14:52:21.354Z,99367.65
2022-10-01T14:54:55.905Z,99359.77
2022-10-01T14:57:38.455Z,99355.95
2022-10-01T15:00:20.326Z,99352.71
2022-10-01T15:03:03.128Z,99349.63
2022-10-01T15:05:35.645Z,99342.67
2022-10-01T15:08:16.219Z,99336.30
2022-10-01T15:10:57.946Z,99334.35
2022-10-01T15:13:34.599Z,99330.34
2022-10-01T15:16:03.562Z,99329.35
2022-10-01T15:18:32.209Z,99327.25
2022-10-01T15:21:07.581Z,99327.06
2022-10-01T15:23:43.841Z,99333.33
2022-10-01T15:26:18.150Z,99329.70
2022-10-01T15:28:45.751Z,99330.69
2022-10-01T15:31:16.234Z,99329.36
2022-10-01T15:33:45.755Z,99331.19
2022-10-01T15:36:18.116Z,99327.31
2022-10-01T15:38:47.359Z,99324.91
2022-10-01T15:41:31.845Z,99321.14
2022-10-01T15:44:06.051Z,99313.20
2022-10-01T15:46:36.208Z,99312.92
2022-10-01T15:49:15.799Z,99310.52
2022-10-01T15:52:12.306Z,99311.98
2022-10-01T15:54:43.890Z,99314.05
2022-10-01T15:57:23.731Z,99315.42
2022-10-01T15:59:55.880Z,99314.23
2022-10-01T16:02:27.114Z,99311.73
2022-10-01T16:05:04.818Z,99307.22
2022-10-01T16:07:35.941Z,99306.19
2022-10-01T16:10:45.648Z,99305.33
2022-10-01T16:13:52.504Z,99302.10
2022-10-01T16:16:25.862Z,99298.92
2022-10-01T16:19:28.503Z,99297.04
2022-10-01T16:22:39.474Z,99296.39
2022-10-01T16:25:25.646Z,99290.45
2022-10-01T16:28:21.434Z,99285.14
2022-10-01T16:30:51.071Z,99283.36
2022-10-01T16:33:20.023Z,99280.78
2022-10-01T16:35:48.286Z,99283.80
2022-10-01T16:38:18.555Z,99278.93
2022-10-01T16:40:49.600Z,99279.78
2022-10-01T16:43:25.788Z,99278.53
2022-10-01T16:45:55.925Z,99278.85
2022-10-01T16:48:24.258Z,99273.23
2022-10-01T16:50:58.885Z,99274.63
2022-10-01T16:53:28.445Z,99269.56
2022-10-01T16:55:57.815Z,99266.45
2022-10-01T16:58:25.407Z,99259.77
2022-10-01T17:00:55.189Z,99252.48
2022-10-01T17:03:26.681Z,99242.20
2022-10-01T17:05:55.865Z,99231.87
2022-10-01T17:08:23.983Z,99241.35
2022-10-01T17:10:58.247Z,99249.91
2022-10-01T17:13:33.903Z,99254.09
2022-10-01T17:16:05.337Z,99246.27
2022-10-01T17:18:33.146Z,99244.33
2022-10-01T17:21:06.346Z,99244.12
2022-10-01T17:23:35.963Z,99241.66
2022-10-01T17:26:08.628Z,99242.20
2022-10-01T17:28:36.368Z,99236.52
2022-10-01T17:31:07.455Z,99237.16
2022-10-01T17:33:37.657Z,99238.27
2022-10-01T17:36:08.477Z,99240.23
2022-10-01T17:38:37.385Z,99239.77
2022-10-01T17:41:05.823Z,99242.30
2022-10-01T17:43:38.862Z,99239.87
2022-10-01T17:46:06.552Z,99233.49
2022-10-01T17:48:35.920Z,99231.80
2022-10-01T17:51:07.729Z,99226.11
2022-10-01T17:53:42.292Z,99223.91
2022-10-01T17:56:15.537Z,99226.65
2022-10-01T17:58:46.182Z,99219.70
2022-10-01T18:01:21.678Z,99222.29
2022-10-01T18:03:55.712Z,99224.66
2022-10-01T18:06:24.430Z,99224.62
2022-10-01T18:08:56.290Z,99223.24
2022-10-01T18:11:28.952Z,99219.08
2022-10-01T18:13:59.082Z,99216.23
2022-10-01T18:16:27.513Z,99216.02
2022-10-01T18:21:48.511Z,99212.98
2022-10-01T18:24:16.792Z,99207.39
2022-10-01T18:26:45.851Z,99206.13
2022-10-01T18:29:25.747Z,99205.09
2022-10-01T18:32:01.870Z,99202.29
2022-10-01T18:34:38.619Z,99198.13
2022-10-01T18:37:43.638Z,99195.80
2022-10-01T18:40:20.258Z,99191.43
2022-10-01T18:43:25.165Z,99192.86
2022-10-01T18:46:07.943Z,99188.70
2022-10-01T18:49:17.500Z,99184.80
2022-10-01T18:52:18.726Z,99189.65
2022-10-01T18:55:20.948Z,99186.38
2022-10-01T18:58:19.629Z,99177.46
2022-10-01T19:01:13.723Z,99175.25
2022-10-01T19:04:22.278Z,99179.48
2022-10-01T19:07:31.288Z,99179.48
2022-10-01T19:10:06.372Z,99180.19
2022-10-01T19:13:30.523Z,99189.36
2022-10-01T19:16:10.118Z,99191.27
2022-10-01T19:18:58.392Z,99208.25
2022-10-01T19:21:51.755Z,99211.98
2022-10-01T19:25:09.511Z,99220.25
2022-10-01T19:28:15.747Z,99223.70
2022-10-01T19:31:06.431Z,99228.61
2022-10-01T19:37:13.213Z,99231.40
2022-10-01T19:39:50.395Z,99227.70
2022-10-01T19:42:29.649Z,99220.84
2022-10-01T19:45:07.184Z,99215.31
2022-10-01T19:48:16.476Z,99214.98
2022-10-01T19:51:08.297Z,99213.20
2022-10-01T19:53:42.230Z,99206.86
2022-10-01T19:56:17.777Z,99212.58
2022-10-01T19:58:48.240Z,99210.63
2022-10-01T20:01:25.347Z,99207.86
2022-10-01T20:04:01.466Z,99209.58
2022-10-01T20:06:37.840Z,99204.61
2022-10-01T20:09:16.282Z,99199.17
2022-10-01T20:12:26.942Z,99198.41
2022-10-01T20:15:34.517Z,99196.89
2022-10-01T20:18:36.984Z,99194.16
2022-10-01T20:21:20.363Z,99192.09
2022-10-01T20:23:54.922Z,99191.17
2022-10-01T20:26:38.826Z,99186.06
2022-10-01T20:29:18.175Z,99183.58
2022-10-01T20:32:07.244Z,99185.06
2022-10-01T20:35:24.632Z,99185.02
2022-10-01T20:38:04.490Z,99191.11
2022-10-01T20:40:52.296Z,99191.90
2022-10-01T20:43:32.034Z,99191.48
2022-10-01T20:46:11.311Z,99191.15
2022-10-01T20:48:50.534Z,99188.52
2022-10-01T20:51:25.901Z,99188.57
2022-10-01T20:54:06.188Z,99190.79
2022-10-01T20:56:50.896Z,99194.05
2022-10-01T20:59:43.034Z,99194.25
2022-10-01T21:02:51.364Z,99191.31
2022-10-01T21:05:24.388Z,99193.41
2022-10-01T21:07:58.388Z,99189.17
2022-10-01T21:10:42.832Z,99192.01
2022-10-01T21:13:20.395Z,99195.48
2022-10-01T21:15:58.820Z,99193.25
2022-10-01T21:19:07.795Z,99195.08
2022-10-01T21:21:56.775Z,99198.36
2022-10-01T21:24:56.079Z,99199.47
2022-10-01T21:37:59.911Z,99195.84
2022-10-01T21:40:44.736Z,99195.05
2022-10-01T21:43:33.600Z,99196.58
2022-10-01T21:46:32.353Z,99197.10
2022-10-01T21:49:29.508Z,99196.27
2022-10-01T21:52:11.786Z,99195.36
2022-10-01T21:55:20.061Z,99194.09
2022-10-01T21:58:14.350Z,99193.61
2022-10-01T22:00:52.695Z,99195.77
2022-10-01T22:03:39.087Z,99193.30
2022-10-01T22:06:21.690Z,99196.67
2022-10-01T22:09:22.873Z,99195.35
2022-10-01T22:11:58.811Z,99201.30
2022-10-01T22:14:30.562Z,99199.29
2022-10-01T22:17:11.073Z,99201.61
2022-10-01T22:19:46.751Z,99197.34
2022-10-01T22:22:22.865Z,99199.14
2022-10-01T22:24:57.686Z,99201.20
2022-10-01T22:27:46.928Z,99199.79
2022-10-01T22:30:27.224Z,99199.58
2022-10-01T22:33:05.086Z,99202.01
2022-10-01T22:35:40.440Z,99201.00
2022-10-01T22:38:31.295Z,99201.34
2022-10-01T22:41:31.694Z,99199.46
2022-10-01T22:44:18.582Z,99199.04
2022-10-01T22:47:09.792Z,99198.73
2022-10-01T22:50:16.971Z,99204.27
2022-10-01T22:53:21.781Z,99200.48
2022-10-01T22:55:50.654Z,99197.05
2022-10-01T22:58:53.193Z,99198.73
2022-10-01T23:02:19.185Z,99195.59
2022-10-01T23:05:10.631Z,99198.08
2022-10-01T23:08:09.323Z,99202.40
2022-10-01T23:10:41.596Z,99204.45
2022-10-01T23:13:29.951Z,99213.30
2022-10-01T23:16:15.971Z,99211.44
2022-10-01T23:19:11.355Z,99213.27
2022-10-01T23:22:20.631Z,99212.59
2022-10-01T23:25:29.661Z,99215.32
2022-10-01T23:28:13.757Z,99220.33
2022-10-01T23:31:09.779Z,99220.13
2022-10-01T23:33:48.016Z,99218.45
2022-10-01T23:36:47.549Z,99218.98
2022-10-01T23:39:28.569Z,99225.60
2022-10-01T23:42:14.810Z,99226.70
2022-10-01T23:45:03.606Z,99224.70
2022-10-01T23:47:44.183Z,99228.17
2022-10-01T23:50:31.884Z,99231.14
2022-10-01T23:53:22.283Z,99232.51
2022-10-01T23:56:29.953Z,99234.09
2022-10-01T23:59:11.120Z,99236.89
